sensor_id;sensor_type;location;lat;lon;timestamp;P1;durP1;ratioP1;P2;durP2;ratioP2
41759;SDS011;27438;53.396;-6.670;2022-07-23T00:01:17;1.30;;;1.02;;
41759;SDS011;27438;53.396;-6.670;2022-07-23T00:03:43;1.88;;;0.90;;
41759;SDS011;27438;53.396;-6.670;2022-07-23T00:06:09;2.35;;;1.23;;
41759;SDS011;27438;53.396;-6.670;2022-07-23T00:08:35;4.13;;;1.50;;
41759;SDS011;27438;53.396;-6.670;2022-07-23T00:11:01;2.10;;;1.00;;
41759;SDS011;27438;53.396;-6.670;2022-07-23T00:13:27;3.58;;;1.20;;
41759;SDS011;27438;53.396;-6.670;2022-07-23T00:15:53;2.20;;;1.10;;
41759;SDS011;27438;53.396;-6.670;2022-07-23T00:18:18;3.58;;;1.48;;
41759;SDS011;27438;53.396;-6.670;2022-07-23T00:20:44;3.38;;;1.17;;
41759;SDS011;27438;53.396;-6.670;2022-07-23T00:23:10;2.28;;;1.02;;
41759;SDS011;27438;53.396;-6.670;2022-07-23T00:25:36;2.38;;;1.50;;
41759;SDS011;27438;53.396;-6.670;2022-07-23T00:28:02;2.70;;;1.85;;
41759;SDS011;27438;53.396;-6.670;2022-07-23T00:30:29;3.00;;;1.20;;
41759;SDS011;27438;53.396;-6.670;2022-07-23T00:32:57;4.20;;;1.00;;
41759;SDS011;27438;53.396;-6.670;2022-07-23T00:35:25;1.30;;;1.13;;
41759;SDS011;27438;53.396;-6.670;2022-07-23T00:37:54;3.08;;;1.40;;
41759;SDS011;27438;53.396;-6.670;2022-07-23T00:40:21;2.30;;;1.15;;
41759;SDS011;27438;53.396;-6.670;2022-07-23T00:42:47;2.53;;;1.13;;
41759;SDS011;27438;53.396;-6.670;2022-07-23T00:45:12;1.95;;;1.40;;
41759;SDS011;27438;53.396;-6.670;2022-07-23T00:47:38;2.65;;;1.42;;
41759;SDS011;27438;53.396;-6.670;2022-07-23T00:50:04;1.20;;;1.10;;
41759;SDS011;27438;53.396;-6.670;2022-07-23T00:52:32;2.15;;;1.48;;
41759;SDS011;27438;53.396;-6.670;2022-07-23T00:54:58;2.13;;;1.33;;
41759;SDS011;27438;53.396;-6.670;2022-07-23T00:57:24;2.35;;;1.20;;
41759;SDS011;27438;53.396;-6.670;2022-07-23T00:59:50;3.03;;;1.48;;
41759;SDS011;27438;53.396;-6.670;2022-07-23T01:02:16;1.58;;;1.48;;
41759;SDS011;27438;53.396;-6.670;2022-07-23T01:04:42;1.30;;;1.05;;
41759;SDS011;27438;53.396;-6.670;2022-07-23T01:07:07;2.35;;;1.30;;
41759;SDS011;27438;53.396;-6.670;2022-07-23T01:09:33;1.98;;;1.40;;
41759;SDS011;27438;53.396;-6.670;2022-07-23T01:11:59;4.20;;;1.50;;
41759;SDS011;27438;53.396;-6.670;2022-07-23T01:14:25;1.73;;;1.08;;
41759;SDS011;27438;53.396;-6.670;2022-07-23T01:16:52;4.15;;;1.60;;
41759;SDS011;27438;53.396;-6.670;2022-07-23T01:19:18;2.20;;;1.65;;
41759;SDS011;27438;53.396;-6.670;2022-07-23T01:21:44;2.25;;;1.58;;
41759;SDS011;27438;53.396;-6.670;2022-07-23T01:24:12;2.53;;;1.80;;
41759;SDS011;27438;53.396;-6.670;2022-07-23T01:26:40;2.90;;;2.00;;
41759;SDS011;27438;53.396;-6.670;2022-07-23T01:29:09;4.38;;;1.92;;
41759;SDS011;27438;53.396;-6.670;2022-07-23T01:31:35;5.32;;;2.53;;
41759;SDS011;27438;53.396;-6.670;2022-07-23T01:34:01;3.30;;;2.35;;
41759;SDS011;27438;53.396;-6.670;2022-07-23T01:36:27;3.40;;;2.50;;
41759;SDS011;27438;53.396;-6.670;2022-07-23T01:38:53;8.20;;;3.35;;
41759;SDS011;27438;53.396;-6.670;2022-07-23T01:41:19;4.20;;;2.33;;
41759;SDS011;27438;53.396;-6.670;2022-07-23T01:43:45;4.10;;;3.08;;
41759;SDS011;27438;53.396;-6.670;2022-07-23T01:46:11;5.15;;;3.08;;
41759;SDS011;27438;53.396;-6.670;2022-07-23T01:48:37;5.43;;;2.90;;
41759;SDS011;27438;53.396;-6.670;2022-07-23T01:51:03;4.90;;;2.90;;
41759;SDS011;27438;53.396;-6.670;2022-07-23T01:53:29;4.65;;;3.15;;
41759;SDS011;27438;53.396;-6.670;2022-07-23T01:55:58;4.53;;;3.40;;
41759;SDS011;27438;53.396;-6.670;2022-07-23T01:58:25;4.68;;;3.03;;
41759;SDS011;27438;53.396;-6.670;2022-07-23T02:00:51;8.43;;;3.42;;
41759;SDS011;27438;53.396;-6.670;2022-07-23T02:03:17;5.65;;;3.30;;
41759;SDS011;27438;53.396;-6.670;2022-07-23T02:05:43;5.07;;;3.33;;
41759;SDS011;27438;53.396;-6.670;2022-07-23T02:08:09;5.03;;;3.45;;
41759;SDS011;27438;53.396;-6.670;2022-07-23T02:10:35;5.75;;;3.63;;
41759;SDS011;27438;53.396;-6.670;2022-07-23T02:13:00;7.30;;;3.88;;
41759;SDS011;27438;53.396;-6.670;2022-07-23T02:15:26;7.35;;;4.57;;
41759;SDS011;27438;53.396;-6.670;2022-07-23T02:17:53;8.70;;;4.35;;
41759;SDS011;27438;53.396;-6.670;2022-07-23T02:20:19;5.50;;;4.65;;
41759;SDS011;27438;53.396;-6.670;2022-07-23T02:22:45;6.57;;;4.38;;
41759;SDS011;27438;53.396;-6.670;2022-07-23T02:25:11;8.43;;;4.18;;
41759;SDS011;27438;53.396;-6.670;2022-07-23T02:27:37;9.30;;;4.00;;
41759;SDS011;27438;53.396;-6.670;2022-07-23T02:30:03;9.25;;;4.90;;
41759;SDS011;27438;53.396;-6.670;2022-07-23T02:32:29;6.95;;;4.95;;
41759;SDS011;27438;53.396;-6.670;2022-07-23T02:34:55;6.10;;;4.47;;
41759;SDS011;27438;53.396;-6.670;2022-07-23T02:37:21;5.68;;;4.60;;
41759;SDS011;27438;53.396;-6.670;2022-07-23T02:39:47;6.78;;;4.60;;
41759;SDS011;27438;53.396;-6.670;2022-07-23T02:42:13;8.55;;;3.97;;
41759;SDS011;27438;53.396;-6.670;2022-07-23T02:44:39;7.00;;;4.30;;
41759;SDS011;27438;53.396;-6.670;2022-07-23T02:47:05;7.38;;;4.38;;
41759;SDS011;27438;53.396;-6.670;2022-07-23T02:49:31;6.65;;;4.85;;
41759;SDS011;27438;53.396;-6.670;2022-07-23T02:51:56;4.80;;;3.75;;
41759;SDS011;27438;53.396;-6.670;2022-07-23T02:54:22;7.78;;;3.75;;
41759;SDS011;27438;53.396;-6.670;2022-07-23T02:56:48;6.18;;;3.70;;
41759;SDS011;27438;53.396;-6.670;2022-07-23T02:59:16;4.88;;;3.83;;
41759;SDS011;27438;53.396;-6.670;2022-07-23T03:01:42;4.70;;;3.85;;
41759;SDS011;27438;53.396;-6.670;2022-07-23T03:04:09;5.95;;;3.90;;
41759;SDS011;27438;53.396;-6.670;2022-07-23T03:06:34;8.68;;;3.88;;
41759;SDS011;27438;53.396;-6.670;2022-07-23T03:09:00;5.22;;;3.72;;
41759;SDS011;27438;53.396;-6.670;2022-07-23T03:11:26;4.90;;;3.65;;
41759;SDS011;27438;53.396;-6.670;2022-07-23T03:13:52;5.90;;;3.33;;
41759;SDS011;27438;53.396;-6.670;2022-07-23T03:16:18;6.45;;;3.80;;
41759;SDS011;27438;53.396;-6.670;2022-07-23T03:18:43;6.97;;;3.90;;
41759;SDS011;27438;53.396;-6.670;2022-07-23T03:21:09;5.70;;;3.40;;
41759;SDS011;27438;53.396;-6.670;2022-07-23T03:23:35;3.90;;;3.38;;
41759;SDS011;27438;53.396;-6.670;2022-07-23T03:26:01;3.95;;;3.40;;
41759;SDS011;27438;53.396;-6.670;2022-07-23T03:28:26;5.47;;;3.85;;
41759;SDS011;27438;53.396;-6.670;2022-07-23T03:30:52;5.88;;;3.92;;
41759;SDS011;27438;53.396;-6.670;2022-07-23T03:33:18;4.53;;;3.60;;
41759;SDS011;27438;53.396;-6.670;2022-07-23T03:35:46;6.03;;;3.90;;
41759;SDS011;27438;53.396;-6.670;2022-07-23T03:38:12;3.60;;;3.10;;
41759;SDS011;27438;53.396;-6.670;2022-07-23T03:40:38;3.75;;;3.30;;
41759;SDS011;27438;53.396;-6.670;2022-07-23T03:43:04;4.50;;;3.40;;
41759;SDS011;27438;53.396;-6.670;2022-07-23T03:45:30;6.65;;;3.65;;
41759;SDS011;27438;53.396;-6.670;2022-07-23T03:47:56;4.43;;;3.75;;
41759;SDS011;27438;53.396;-6.670;2022-07-23T03:50:22;5.18;;;3.47;;
41759;SDS011;27438;53.396;-6.670;2022-07-23T03:52:49;4.47;;;4.03;;
41759;SDS011;27438;53.396;-6.670;2022-07-23T03:55:15;5.55;;;3.58;;
41759;SDS011;27438;53.396;-6.670;2022-07-23T03:57:41;6.70;;;3.85;;
41759;SDS011;27438;53.396;-6.670;2022-07-23T04:00:07;4.68;;;3.42;;
41759;SDS011;27438;53.396;-6.670;2022-07-23T04:02:35;4.57;;;3.53;;
41759;SDS011;27438;53.396;-6.670;2022-07-23T04:05:01;4.57;;;3.88;;
41759;SDS011;27438;53.396;-6.670;2022-07-23T04:07:27;3.72;;;3.30;;
41759;SDS011;27438;53.396;-6.670;2022-07-23T04:09:53;11.25;;;3.63;;
41759;SDS011;27438;53.396;-6.670;2022-07-23T04:12:18;3.90;;;3.20;;
41759;SDS011;27438;53.396;-6.670;2022-07-23T04:14:44;4.68;;;3.75;;
41759;SDS011;27438;53.396;-6.670;2022-07-23T04:17:10;6.18;;;4.32;;
41759;SDS011;27438;53.396;-6.670;2022-07-23T04:19:36;3.70;;;3.33;;
41759;SDS011;27438;53.396;-6.670;2022-07-23T04:22:07;3.47;;;2.83;;
41759;SDS011;27438;53.396;-6.670;2022-07-23T04:24:33;6.72;;;3.40;;
41759;SDS011;27438;53.396;-6.670;2022-07-23T04:26:59;5.13;;;2.95;;
41759;SDS011;27438;53.396;-6.670;2022-07-23T04:29:25;6.43;;;3.60;;
41759;SDS011;27438;53.396;-6.670;2022-07-23T04:31:51;6.30;;;3.70;;
41759;SDS011;27438;53.396;-6.670;2022-07-23T04:34:17;3.38;;;2.63;;
41759;SDS011;27438;53.396;-6.670;2022-07-23T04:36:43;5.28;;;3.45;;
41759;SDS011;27438;53.396;-6.670;2022-07-23T04:39:09;7.53;;;3.38;;
41759;SDS011;27438;53.396;-6.670;2022-07-23T04:41:34;6.82;;;4.68;;
41759;SDS011;27438;53.396;-6.670;2022-07-23T04:44:00;7.63;;;3.70;;
41759;SDS011;27438;53.396;-6.670;2022-07-23T04:46:27;7.32;;;3.88;;
41759;SDS011;27438;53.396;-6.670;2022-07-23T04:48:53;9.57;;;5.22;;
41759;SDS011;27438;53.396;-6.670;2022-07-23T04:51:18;6.18;;;4.28;;
41759;SDS011;27438;53.396;-6.670;2022-07-23T04:53:44;8.82;;;4.38;;
41759;SDS011;27438;53.396;-6.670;2022-07-23T04:56:10;7.72;;;4.60;;
41759;SDS011;27438;53.396;-6.670;2022-07-23T04:58:36;7.25;;;4.65;;
41759;SDS011;27438;53.396;-6.670;2022-07-23T05:01:02;5.43;;;4.40;;
41759;SDS011;27438;53.396;-6.670;2022-07-23T05:03:27;7.07;;;4.28;;
41759;SDS011;27438;53.396;-6.670;2022-07-23T05:05:53;6.90;;;4.90;;
41759;SDS011;27438;53.396;-6.670;2022-07-23T05:08:19;7.15;;;4.68;;
41759;SDS011;27438;53.396;-6.670;2022-07-23T05:10:45;5.75;;;4.55;;
41759;SDS011;27438;53.396;-6.670;2022-07-23T05:13:11;7.43;;;4.57;;
41759;SDS011;27438;53.396;-6.670;2022-07-23T05:15:37;6.63;;;4.80;;
41759;SDS011;27438;53.396;-6.670;2022-07-23T05:18:02;5.63;;;4.25;;
41759;SDS011;27438;53.396;-6.670;2022-07-23T05:20:28;20.65;;;6.50;;
41759;SDS011;27438;53.396;-6.670;2022-07-23T05:22:54;8.30;;;5.80;;
41759;SDS011;27438;53.396;-6.670;2022-07-23T05:25:20;9.27;;;6.47;;
41759;SDS011;27438;53.396;-6.670;2022-07-23T05:27:45;7.30;;;5.50;;
41759;SDS011;27438;53.396;-6.670;2022-07-23T05:30:11;9.93;;;6.32;;
41759;SDS011;27438;53.396;-6.670;2022-07-23T05:32:37;12.45;;;5.93;;
41759;SDS011;27438;53.396;-6.670;2022-07-23T05:35:06;12.27;;;7.13;;
41759;SDS011;27438;53.396;-6.670;2022-07-23T05:37:32;9.85;;;7.15;;
41759;SDS011;27438;53.396;-6.670;2022-07-23T05:40:05;10.70;;;7.15;;
41759;SDS011;27438;53.396;-6.670;2022-07-23T05:42:33;12.40;;;7.03;;
41759;SDS011;27438;53.396;-6.670;2022-07-23T05:44:59;7.85;;;6.20;;
41759;SDS011;27438;53.396;-6.670;2022-07-23T05:47:25;12.15;;;7.95;;
41759;SDS011;27438;53.396;-6.670;2022-07-23T05:49:51;9.57;;;7.22;;
41759;SDS011;27438;53.396;-6.670;2022-07-23T05:52:16;10.80;;;6.30;;
41759;SDS011;27438;53.396;-6.670;2022-07-23T05:54:42;11.98;;;6.95;;
41759;SDS011;27438;53.396;-6.670;2022-07-23T05:57:08;8.27;;;6.55;;
41759;SDS011;27438;53.396;-6.670;2022-07-23T05:59:34;10.80;;;6.43;;
41759;SDS011;27438;53.396;-6.670;2022-07-23T06:01:59;10.48;;;6.68;;
41759;SDS011;27438;53.396;-6.670;2022-07-23T06:04:25;11.60;;;6.82;;
41759;SDS011;27438;53.396;-6.670;2022-07-23T06:06:51;9.55;;;7.63;;
41759;SDS011;27438;53.396;-6.670;2022-07-23T06:09:17;11.73;;;7.80;;
41759;SDS011;27438;53.396;-6.670;2022-07-23T06:11:43;12.20;;;6.18;;
41759;SDS011;27438;53.396;-6.670;2022-07-23T06:14:09;16.92;;;7.80;;
41759;SDS011;27438;53.396;-6.670;2022-07-23T06:16:35;13.40;;;8.00;;
41759;SDS011;27438;53.396;-6.670;2022-07-23T06:19:00;13.02;;;7.68;;
41759;SDS011;27438;53.396;-6.670;2022-07-23T06:21:26;12.98;;;9.25;;
41759;SDS011;27438;53.396;-6.670;2022-07-23T06:23:52;17.08;;;9.50;;
41759;SDS011;27438;53.396;-6.670;2022-07-23T06:26:18;12.05;;;7.43;;
41759;SDS011;27438;53.396;-6.670;2022-07-23T06:28:43;13.85;;;8.40;;
41759;SDS011;27438;53.396;-6.670;2022-07-23T06:31:09;12.43;;;8.32;;
41759;SDS011;27438;53.396;-6.670;2022-07-23T06:33:35;13.93;;;8.38;;
41759;SDS011;27438;53.396;-6.670;2022-07-23T06:36:00;12.55;;;8.82;;
41759;SDS011;27438;53.396;-6.670;2022-07-23T06:38:26;23.33;;;11.18;;
41759;SDS011;27438;53.396;-6.670;2022-07-23T06:40:52;19.20;;;11.80;;
41759;SDS011;27438;53.396;-6.670;2022-07-23T06:43:18;13.43;;;8.77;;
41759;SDS011;27438;53.396;-6.670;2022-07-23T06:45:43;16.20;;;10.82;;
41759;SDS011;27438;53.396;-6.670;2022-07-23T06:48:09;11.73;;;9.48;;
41759;SDS011;27438;53.396;-6.670;2022-07-23T06:50:35;16.63;;;9.52;;
41759;SDS011;27438;53.396;-6.670;2022-07-23T06:53:00;13.68;;;10.02;;
41759;SDS011;27438;53.396;-6.670;2022-07-23T06:55:26;11.75;;;8.10;;
41759;SDS011;27438;53.396;-6.670;2022-07-23T06:57:52;13.65;;;10.00;;
41759;SDS011;27438;53.396;-6.670;2022-07-23T07:00:18;13.38;;;9.65;;
41759;SDS011;27438;53.396;-6.670;2022-07-23T07:02:44;12.68;;;8.18;;
41759;SDS011;27438;53.396;-6.670;2022-07-23T07:05:10;9.95;;;7.38;;
41759;SDS011;27438;53.396;-6.670;2022-07-23T07:07:35;11.13;;;8.32;;
41759;SDS011;27438;53.396;-6.670;2022-07-23T07:10:02;12.07;;;8.43;;
41759;SDS011;27438;53.396;-6.670;2022-07-23T07:12:29;13.40;;;8.93;;
41759;SDS011;27438;53.396;-6.670;2022-07-23T07:14:54;12.95;;;8.48;;
41759;SDS011;27438;53.396;-6.670;2022-07-23T07:17:21;16.70;;;10.05;;
41759;SDS011;27438;53.396;-6.670;2022-07-23T07:19:47;10.55;;;8.48;;
41759;SDS011;27438;53.396;-6.670;2022-07-23T07:22:13;12.18;;;8.40;;
41759;SDS011;27438;53.396;-6.670;2022-07-23T07:24:39;13.07;;;8.65;;
41759;SDS011;27438;53.396;-6.670;2022-07-23T07:27:05;9.80;;;8.38;;
41759;SDS011;27438;53.396;-6.670;2022-07-23T07:29:31;12.38;;;7.88;;
41759;SDS011;27438;53.396;-6.670;2022-07-23T07:31:56;12.20;;;7.57;;
41759;SDS011;27438;53.396;-6.670;2022-07-23T07:34:22;9.82;;;7.40;;
41759;SDS011;27438;53.396;-6.670;2022-07-23T07:36:48;11.52;;;8.50;;
41759;SDS011;27438;53.396;-6.670;2022-07-23T07:39:15;15.63;;;7.10;;
41759;SDS011;27438;53.396;-6.670;2022-07-23T07:41:40;9.32;;;6.72;;
41759;SDS011;27438;53.396;-6.670;2022-07-23T07:44:06;11.77;;;7.03;;
41759;SDS011;27438;53.396;-6.670;2022-07-23T07:46:32;12.70;;;7.55;;
41759;SDS011;27438;53.396;-6.670;2022-07-23T07:48:58;11.80;;;7.47;;
41759;SDS011;27438;53.396;-6.670;2022-07-23T07:51:23;30.05;;;7.22;;
41759;SDS011;27438;53.396;-6.670;2022-07-23T07:53:50;15.70;;;8.45;;
41759;SDS011;27438;53.396;-6.670;2022-07-23T07:56:15;12.55;;;8.07;;
41759;SDS011;27438;53.396;-6.670;2022-07-23T07:58:41;18.42;;;9.98;;
41759;SDS011;27438;53.396;-6.670;2022-07-23T08:01:07;11.27;;;6.40;;
41759;SDS011;27438;53.396;-6.670;2022-07-23T08:03:32;11.13;;;6.65;;
41759;SDS011;27438;53.396;-6.670;2022-07-23T08:05:58;10.10;;;6.20;;
41759;SDS011;27438;53.396;-6.670;2022-07-23T08:08:24;11.32;;;6.60;;
41759;SDS011;27438;53.396;-6.670;2022-07-23T08:10:50;9.65;;;5.47;;
41759;SDS011;27438;53.396;-6.670;2022-07-23T08:13:16;7.15;;;5.80;;
41759;SDS011;27438;53.396;-6.670;2022-07-23T08:15:41;7.72;;;4.30;;
41759;SDS011;27438;53.396;-6.670;2022-07-23T08:18:08;8.50;;;4.45;;
41759;SDS011;27438;53.396;-6.670;2022-07-23T08:20:34;7.35;;;4.22;;
41759;SDS011;27438;53.396;-6.670;2022-07-23T08:23:03;8.32;;;4.13;;
41759;SDS011;27438;53.396;-6.670;2022-07-23T08:25:40;6.57;;;4.05;;
41759;SDS011;27438;53.396;-6.670;2022-07-23T08:28:07;6.72;;;3.47;;
41759;SDS011;27438;53.396;-6.670;2022-07-23T08:30:35;5.68;;;3.45;;
41759;SDS011;27438;53.396;-6.670;2022-07-23T08:33:03;5.43;;;2.92;;
41759;SDS011;27438;53.396;-6.670;2022-07-23T08:35:37;5.40;;;3.03;;
41759;SDS011;27438;53.396;-6.670;2022-07-23T08:38:05;8.27;;;3.13;;
41759;SDS011;27438;53.396;-6.670;2022-07-23T08:40:33;3.95;;;2.80;;
41759;SDS011;27438;53.396;-6.670;2022-07-23T08:43:02;5.78;;;2.70;;
41759;SDS011;27438;53.396;-6.670;2022-07-23T08:45:30;8.45;;;2.90;;
41759;SDS011;27438;53.396;-6.670;2022-07-23T08:48:00;3.90;;;2.40;;
41759;SDS011;27438;53.396;-6.670;2022-07-23T08:50:26;3.75;;;2.50;;
41759;SDS011;27438;53.396;-6.670;2022-07-23T08:52:52;6.38;;;2.70;;
41759;SDS011;27438;53.396;-6.670;2022-07-23T08:55:20;6.38;;;3.00;;
41759;SDS011;27438;53.396;-6.670;2022-07-23T08:57:48;7.57;;;2.95;;
41759;SDS011;27438;53.396;-6.670;2022-07-23T09:00:16;4.90;;;2.95;;
41759;SDS011;27438;53.396;-6.670;2022-07-23T09:02:43;3.92;;;2.95;;
41759;SDS011;27438;53.396;-6.670;2022-07-23T09:05:10;5.00;;;2.55;;
41759;SDS011;27438;53.396;-6.670;2022-07-23T09:07:37;4.55;;;2.63;;
41759;SDS011;27438;53.396;-6.670;2022-07-23T09:10:24;4.22;;;2.53;;
41759;SDS011;27438;53.396;-6.670;2022-07-23T09:12:50;4.72;;;2.28;;
41759;SDS011;27438;53.396;-6.670;2022-07-23T09:15:15;5.22;;;2.47;;
41759;SDS011;27438;53.396;-6.670;2022-07-23T09:17:42;5.00;;;2.80;;
41759;SDS011;27438;53.396;-6.670;2022-07-23T09:20:11;6.07;;;2.35;;
41759;SDS011;27438;53.396;-6.670;2022-07-23T09:22:38;5.07;;;1.92;;
41759;SDS011;27438;53.396;-6.670;2022-07-23T09:25:07;7.25;;;2.17;;
41759;SDS011;27438;53.396;-6.670;2022-07-23T09:27:47;3.72;;;2.30;;
41759;SDS011;27438;53.396;-6.670;2022-07-23T09:30:17;7.32;;;2.42;;
41759;SDS011;27438;53.396;-6.670;2022-07-23T09:32:44;3.05;;;2.08;;
41759;SDS011;27438;53.396;-6.670;2022-07-23T09:35:45;3.00;;;1.85;;
41759;SDS011;27438;53.396;-6.670;2022-07-23T09:38:22;3.85;;;2.42;;
41759;SDS011;27438;53.396;-6.670;2022-07-23T09:41:07;5.38;;;2.20;;
41759;SDS011;27438;53.396;-6.670;2022-07-23T09:43:34;3.65;;;1.77;;
41759;SDS011;27438;53.396;-6.670;2022-07-23T09:48:52;2.97;;;1.33;;
41759;SDS011;27438;53.396;-6.670;2022-07-23T09:51:24;3.72;;;1.83;;
41759;SDS011;27438;53.396;-6.670;2022-07-23T09:53:50;1.98;;;1.20;;
41759;SDS011;27438;53.396;-6.670;2022-07-23T09:56:16;3.65;;;1.70;;
41759;SDS011;27438;53.396;-6.670;2022-07-23T09:58:43;2.88;;;1.50;;
41759;SDS011;27438;53.396;-6.670;2022-07-23T10:01:14;4.75;;;1.70;;
41759;SDS011;27438;53.396;-6.670;2022-07-23T10:03:40;5.05;;;1.80;;
41759;SDS011;27438;53.396;-6.670;2022-07-23T10:06:08;4.88;;;1.60;;
41759;SDS011;27438;53.396;-6.670;2022-07-23T10:08:35;2.80;;;1.40;;
41759;SDS011;27438;53.396;-6.670;2022-07-23T10:11:03;3.38;;;1.67;;
41759;SDS011;27438;53.396;-6.670;2022-07-23T10:13:29;4.70;;;1.52;;
41759;SDS011;27438;53.396;-6.670;2022-07-23T10:15:55;2.50;;;1.25;;
41759;SDS011;27438;53.396;-6.670;2022-07-23T10:18:21;8.18;;;1.42;;
41759;SDS011;27438;53.396;-6.670;2022-07-23T10:20:48;3.10;;;1.77;;
41759;SDS011;27438;53.396;-6.670;2022-07-23T10:23:16;6.65;;;2.22;;
41759;SDS011;27438;53.396;-6.670;2022-07-23T10:26:00;4.35;;;2.15;;
41759;SDS011;27438;53.396;-6.670;2022-07-23T10:28:42;2.85;;;2.15;;
41759;SDS011;27438;53.396;-6.670;2022-07-23T10:31:28;4.85;;;2.03;;
41759;SDS011;27438;53.396;-6.670;2022-07-23T10:34:14;4.70;;;2.03;;
41759;SDS011;27438;53.396;-6.670;2022-07-23T10:37:00;4.03;;;1.63;;
41759;SDS011;27438;53.396;-6.670;2022-07-23T10:39:33;3.47;;;2.65;;
41759;SDS011;27438;53.396;-6.670;2022-07-23T10:42:09;3.17;;;1.55;;
41759;SDS011;27438;53.396;-6.670;2022-07-23T10:44:38;4.03;;;1.50;;
41759;SDS011;27438;53.396;-6.670;2022-07-23T10:47:07;2.15;;;1.52;;
41759;SDS011;27438;53.396;-6.670;2022-07-23T10:49:43;1.85;;;1.10;;
41759;SDS011;27438;53.396;-6.670;2022-07-23T10:52:16;1.33;;;0.88;;
41759;SDS011;27438;53.396;-6.670;2022-07-23T10:54:44;2.85;;;0.93;;
41759;SDS011;27438;53.396;-6.670;2022-07-23T10:57:21;1.35;;;0.90;;
41759;SDS011;27438;53.396;-6.670;2022-07-23T11:02:28;1.48;;;1.00;;
41759;SDS011;27438;53.396;-6.670;2022-07-23T11:05:04;1.48;;;0.60;;
41759;SDS011;27438;53.396;-6.670;2022-07-23T11:07:30;0.82;;;0.70;;
41759;SDS011;27438;53.396;-6.670;2022-07-23T11:09:56;1.55;;;0.70;;
41759;SDS011;27438;53.396;-6.670;2022-07-23T11:17:25;0.80;;;0.80;;
41759;SDS011;27438;53.396;-6.670;2022-07-23T11:25:09;0.70;;;0.70;;
41759;SDS011;27438;53.396;-6.670;2022-07-23T11:27:45;0.73;;;0.70;;
41759;SDS011;27438;53.396;-6.670;2022-07-23T11:30:56;1.45;;;0.70;;
41759;SDS011;27438;53.396;-6.670;2022-07-23T11:35:35;0.70;;;0.70;;
41759;SDS011;27438;53.396;-6.670;2022-07-23T11:38:06;2.03;;;0.88;;
41759;SDS011;27438;53.396;-6.670;2022-07-23T11:40:38;1.00;;;0.80;;
41759;SDS011;27438;53.396;-6.670;2022-07-23T11:43:07;3.58;;;1.33;;
41759;SDS011;27438;53.396;-6.670;2022-07-23T11:45:38;0.80;;;0.80;;
41759;SDS011;27438;53.396;-6.670;2022-07-23T11:50:32;7.13;;;2.20;;
41759;SDS011;27438;53.396;-6.670;2022-07-23T11:52:58;4.63;;;2.35;;
41759;SDS011;27438;53.396;-6.670;2022-07-23T11:55:24;2.85;;;1.90;;
41759;SDS011;27438;53.396;-6.670;2022-07-23T11:57:51;1.90;;;1.73;;
41759;SDS011;27438;53.396;-6.670;2022-07-23T12:00:19;2.10;;;1.90;;
41759;SDS011;27438;53.396;-6.670;2022-07-23T12:02:48;3.05;;;1.70;;
41759;SDS011;27438;53.396;-6.670;2022-07-23T12:05:20;2.25;;;1.92;;
41759;SDS011;27438;53.396;-6.670;2022-07-23T12:07:48;3.10;;;2.40;;
41759;SDS011;27438;53.396;-6.670;2022-07-23T12:15:08;2.13;;;1.92;;
41759;SDS011;27438;53.396;-6.670;2022-07-23T12:17:38;1.60;;;1.50;;
41759;SDS011;27438;53.396;-6.670;2022-07-23T12:20:05;4.03;;;1.58;;
41759;SDS011;27438;53.396;-6.670;2022-07-23T12:22:36;1.88;;;1.73;;
41759;SDS011;27438;53.396;-6.670;2022-07-23T12:25:08;2.70;;;1.70;;
41759;SDS011;27438;53.396;-6.670;2022-07-23T12:27:40;2.47;;;1.70;;
41759;SDS011;27438;53.396;-6.670;2022-07-23T12:30:19;2.28;;;1.55;;
41759;SDS011;27438;53.396;-6.670;2022-07-23T12:32:51;1.80;;;1.40;;
41759;SDS011;27438;53.396;-6.670;2022-07-23T12:35:18;3.70;;;1.70;;
41759;SDS011;27438;53.396;-6.670;2022-07-23T12:37:46;2.00;;;1.38;;
41759;SDS011;27438;53.396;-6.670;2022-07-23T12:43:02;1.38;;;1.27;;
41759;SDS011;27438;53.396;-6.670;2022-07-23T12:45:52;3.47;;;1.40;;
41759;SDS011;27438;53.396;-6.670;2022-07-23T12:48:19;2.25;;;1.60;;
41759;SDS011;27438;53.396;-6.670;2022-07-23T12:53:32;1.95;;;1.33;;
41759;SDS011;27438;53.396;-6.670;2022-07-23T12:56:06;3.00;;;1.42;;
41759;SDS011;27438;53.396;-6.670;2022-07-23T12:58:41;1.45;;;1.20;;
41759;SDS011;27438;53.396;-6.670;2022-07-23T13:01:22;1.25;;;1.10;;
41759;SDS011;27438;53.396;-6.670;2022-07-23T13:03:58;2.13;;;1.65;;
41759;SDS011;27438;53.396;-6.670;2022-07-23T13:06:34;1.08;;;0.90;;
41759;SDS011;27438;53.396;-6.670;2022-07-23T13:09:01;1.85;;;1.10;;
41759;SDS011;27438;53.396;-6.670;2022-07-23T13:11:28;3.13;;;1.10;;
41759;SDS011;27438;53.396;-6.670;2022-07-23T13:13:54;1.90;;;0.88;;
41759;SDS011;27438;53.396;-6.670;2022-07-23T13:16:20;1.63;;;1.00;;
41759;SDS011;27438;53.396;-6.670;2022-07-23T13:18:46;2.90;;;0.80;;
41759;SDS011;27438;53.396;-6.670;2022-07-23T13:21:12;4.65;;;1.10;;
41759;SDS011;27438;53.396;-6.670;2022-07-23T13:23:38;1.52;;;1.02;;
41759;SDS011;27438;53.396;-6.670;2022-07-23T13:26:03;1.10;;;0.90;;
41759;SDS011;27438;53.396;-6.670;2022-07-23T13:28:30;2.05;;;0.90;;
41759;SDS011;27438;53.396;-6.670;2022-07-23T13:30:55;1.65;;;0.88;;
41759;SDS011;27438;53.396;-6.670;2022-07-23T13:33:22;2.38;;;0.98;;
41759;SDS011;27438;53.396;-6.670;2022-07-23T13:35:49;0.93;;;0.90;;
41759;SDS011;27438;53.396;-6.670;2022-07-23T13:38:16;1.17;;;1.08;;
41759;SDS011;27438;53.396;-6.670;2022-07-23T13:40:43;1.30;;;1.20;;
41759;SDS011;27438;53.396;-6.670;2022-07-23T13:43:11;1.23;;;1.05;;
41759;SDS011;27438;53.396;-6.670;2022-07-23T13:45:39;1.40;;;1.10;;
41759;SDS011;27438;53.396;-6.670;2022-07-23T13:48:06;1.55;;;1.02;;
41759;SDS011;27438;53.396;-6.670;2022-07-23T13:50:32;2.17;;;1.20;;
41759;SDS011;27438;53.396;-6.670;2022-07-23T13:53:07;1.10;;;1.00;;
41759;SDS011;27438;53.396;-6.670;2022-07-23T13:55:35;2.63;;;1.05;;
41759;SDS011;27438;53.396;-6.670;2022-07-23T13:58:01;1.73;;;1.63;;
41759;SDS011;27438;53.396;-6.670;2022-07-23T14:00:28;1.58;;;1.08;;
41759;SDS011;27438;53.396;-6.670;2022-07-23T14:02:55;1.25;;;1.10;;
41759;SDS011;27438;53.396;-6.670;2022-07-23T14:05:21;2.17;;;1.20;;
41759;SDS011;27438;53.396;-6.670;2022-07-23T14:07:47;1.80;;;1.10;;
41759;SDS011;27438;53.396;-6.670;2022-07-23T14:10:15;1.05;;;0.95;;
41759;SDS011;27438;53.396;-6.670;2022-07-23T14:12:42;3.63;;;1.10;;
41759;SDS011;27438;53.396;-6.670;2022-07-23T14:15:09;1.33;;;1.13;;
41759;SDS011;27438;53.396;-6.670;2022-07-23T14:17:38;2.95;;;0.80;;
41759;SDS011;27438;53.396;-6.670;2022-07-23T14:20:05;1.30;;;0.95;;
41759;SDS011;27438;53.396;-6.670;2022-07-23T14:22:32;1.25;;;0.80;;
41759;SDS011;27438;53.396;-6.670;2022-07-23T14:24:58;1.27;;;0.70;;
41759;SDS011;27438;53.396;-6.670;2022-07-23T14:27:25;0.73;;;0.73;;
41759;SDS011;27438;53.396;-6.670;2022-07-23T14:29:53;1.83;;;0.80;;
41759;SDS011;27438;53.396;-6.670;2022-07-23T14:32:19;3.13;;;1.13;;
41759;SDS011;27438;53.396;-6.670;2022-07-23T14:34:46;2.15;;;0.88;;
41759;SDS011;27438;53.396;-6.670;2022-07-23T14:37:12;1.88;;;0.82;;
41759;SDS011;27438;53.396;-6.670;2022-07-23T14:39:38;2.00;;;1.13;;
41759;SDS011;27438;53.396;-6.670;2022-07-23T14:42:04;2.10;;;0.88;;
41759;SDS011;27438;53.396;-6.670;2022-07-23T14:44:31;1.45;;;0.80;;
41759;SDS011;27438;53.396;-6.670;2022-07-23T14:46:57;1.27;;;0.90;;
41759;SDS011;27438;53.396;-6.670;2022-07-23T14:49:25;1.25;;;0.77;;
41759;SDS011;27438;53.396;-6.670;2022-07-23T14:51:51;2.95;;;1.02;;
41759;SDS011;27438;53.396;-6.670;2022-07-23T14:54:17;3.47;;;1.40;;
41759;SDS011;27438;53.396;-6.670;2022-07-23T14:56:44;3.40;;;0.90;;
41759;SDS011;27438;53.396;-6.670;2022-07-23T14:59:11;2.58;;;1.20;;
41759;SDS011;27438;53.396;-6.670;2022-07-23T15:01:38;3.08;;;1.10;;
41759;SDS011;27438;53.396;-6.670;2022-07-23T15:04:04;1.60;;;1.15;;
41759;SDS011;27438;53.396;-6.670;2022-07-23T15:06:30;1.70;;;0.90;;